createdAt,value
2017-08-27T00:01:34.811Z,11.03
2017-08-27T00:04:02.532Z,11.30
2017-08-27T00:06:29.386Z,11.40
2017-08-27T00:08:56.253Z,11.63
2017-08-27T00:11:23.933Z,11.23
2017-08-27T00:13:50.790Z,10.70
2017-08-27T00:16:17.734Z,12.43
2017-08-27T00:18:44.605Z,12.90
2017-08-27T00:21:11.481Z,12.60
2017-08-27T00:23:38.420Z,12.33
2017-08-27T00:26:05.339Z,15.00
2017-08-27T00:28:32.276Z,13.87
2017-08-27T00:30:59.182Z,14.60
2017-08-27T00:33:26.065Z,16.30
2017-08-27T00:35:53.021Z,13.20
2017-08-27T00:38:19.909Z,13.97
2017-08-27T00:40:46.791Z,13.97
2017-08-27T00:43:13.743Z,13.50
2017-08-27T00:45:40.680Z,14.00
2017-08-27T00:48:07.609Z,12.93
2017-08-27T00:50:35.259Z,13.87
2017-08-27T00:53:02.960Z,13.67
2017-08-27T00:55:29.862Z,14.13
2017-08-27T00:57:56.722Z,14.67
2017-08-27T01:00:24.439Z,15.27
2017-08-27T01:02:51.353Z,15.50
2017-08-27T01:05:18.329Z,15.23
2017-08-27T01:07:45.292Z,15.33
2017-08-27T01:10:12.167Z,15.77
2017-08-27T01:12:39.110Z,15.20
2017-08-27T01:15:06.817Z,15.67
2017-08-27T01:17:33.676Z,14.40
2017-08-27T01:20:00.610Z,17.57
2017-08-27T01:22:27.563Z,17.83
2017-08-27T01:24:54.496Z,18.23
2017-08-27T01:27:21.423Z,18.37
2017-08-27T01:29:48.272Z,17.90
2017-08-27T01:32:15.162Z,16.30
2017-08-27T01:34:42.092Z,15.80
2017-08-27T01:37:08.961Z,14.60
2017-08-27T01:39:35.824Z,14.80
2017-08-27T01:42:03.512Z,15.20
2017-08-27T01:44:30.428Z,14.10
2017-08-27T01:46:57.294Z,13.50
2017-08-27T01:49:24.905Z,12.33
2017-08-27T01:51:51.869Z,13.40
2017-08-27T01:54:19.547Z,13.40
2017-08-27T01:56:47.224Z,12.70
2017-08-27T01:59:14.903Z,10.83
2017-08-27T02:01:42.189Z,12.13
2017-08-27T02:04:09.076Z,12.67
2017-08-27T02:06:36.760Z,12.37
2017-08-27T02:09:03.810Z,12.10
2017-08-27T02:11:30.678Z,13.60
2017-08-27T02:13:57.605Z,13.00
2017-08-27T02:16:24.521Z,17.53
2017-08-27T02:18:52.215Z,19.83
2017-08-27T02:21:19.157Z,24.40
2017-08-27T02:23:46.023Z,23.73
2017-08-27T02:26:12.881Z,25.87
2017-08-27T02:28:39.820Z,27.30
2017-08-27T02:31:06.671Z,19.30
2017-08-27T02:33:33.624Z,21.43
2017-08-27T02:36:00.485Z,15.93
2017-08-27T02:38:27.366Z,15.17
2017-08-27T02:40:54.309Z,15.53
2017-08-27T02:43:21.171Z,14.90
2017-08-27T02:45:48.034Z,16.43
2017-08-27T02:48:14.952Z,16.63
2017-08-27T02:50:41.825Z,17.73
2017-08-27T02:53:08.771Z,19.97
2017-08-27T02:55:35.651Z,22.00
2017-08-27T02:58:02.507Z,19.53
2017-08-27T03:00:30.181Z,18.53
2017-08-27T03:02:57.207Z,17.40
2017-08-27T03:05:24.160Z,17.33
2017-08-27T03:07:51.780Z,17.50
2017-08-27T03:10:18.669Z,16.60
2017-08-27T03:12:46.397Z,17.17
2017-08-27T03:15:13.277Z,17.47
2017-08-27T03:17:40.124Z,15.77
2017-08-27T03:20:07.804Z,15.77
2017-08-27T03:22:35.414Z,15.93
2017-08-27T03:25:02.286Z,15.83
2017-08-27T03:27:29.236Z,15.67
2017-08-27T03:29:56.840Z,15.53
2017-08-27T03:32:23.785Z,15.63
2017-08-27T03:34:50.652Z,15.80
2017-08-27T03:37:17.604Z,16.20
2017-08-27T03:39:44.487Z,15.47
2017-08-27T03:42:12.092Z,17.67
2017-08-27T03:44:39.019Z,21.00
2017-08-27T03:47:05.952Z,18.40
2017-08-27T03:49:33.586Z,21.07
2017-08-27T03:52:00.535Z,20.17
2017-08-27T03:54:27.468Z,21.30
2017-08-27T03:56:54.396Z,22.93
2017-08-27T03:59:21.275Z,20.27
2017-08-27T04:01:48.213Z,18.90
2017-08-27T04:04:15.170Z,16.60
2017-08-27T04:06:42.896Z,17.23
2017-08-27T04:09:09.791Z,16.10
2017-08-27T04:11:37.414Z,16.37
2017-08-27T04:14:04.365Z,14.80
2017-08-27T04:16:31.228Z,14.57
2017-08-27T04:18:58.085Z,14.60
2017-08-27T04:21:25.041Z,15.93
2017-08-27T04:23:51.913Z,16.20
2017-08-27T04:26:25.861Z,14.50
2017-08-27T04:28:53.673Z,16.07
2017-08-27T04:31:20.528Z,16.00
2017-08-27T04:33:47.400Z,15.90
2017-08-27T04:36:14.324Z,16.07
2017-08-27T04:38:41.254Z,14.47
2017-08-27T04:41:08.139Z,16.23
2017-08-27T04:43:35.066Z,17.00
2017-08-27T04:46:01.932Z,17.53
2017-08-27T04:48:32.663Z,19.20
2017-08-27T04:50:59.539Z,20.10
2017-08-27T04:53:26.456Z,19.90
2017-08-27T04:55:53.392Z,18.80
2017-08-27T04:58:20.236Z,17.70
2017-08-27T05:00:47.164Z,20.30
2017-08-27T05:03:14.093Z,22.30
2017-08-27T05:05:40.953Z,22.23
2017-08-27T05:08:07.814Z,20.40
2017-08-27T05:10:34.745Z,27.97
2017-08-27T05:13:01.596Z,26.20
2017-08-27T05:15:28.540Z,29.10
2017-08-27T05:17:55.417Z,26.63
2017-08-27T05:20:22.283Z,21.60
2017-08-27T05:22:49.228Z,20.80
2017-08-27T05:25:16.833Z,20.57
2017-08-27T05:27:43.684Z,22.73
2017-08-27T05:30:10.625Z,20.37
2017-08-27T05:32:37.500Z,19.70
2017-08-27T05:35:04.412Z,19.83
2017-08-27T05:37:31.355Z,21.13
2017-08-27T05:39:58.240Z,20.37
2017-08-27T05:42:25.340Z,18.80
2017-08-27T05:44:52.220Z,17.77
2017-08-27T05:47:19.176Z,17.87
2017-08-27T05:49:46.115Z,19.97
2017-08-27T05:52:13.001Z,20.33
2017-08-27T05:54:40.610Z,22.17
2017-08-27T05:57:07.676Z,20.97
2017-08-27T05:59:34.630Z,21.73
2017-08-27T06:02:01.600Z,22.00
2017-08-27T06:04:29.200Z,20.27
2017-08-27T06:06:56.132Z,20.43
2017-08-27T06:09:23.002Z,23.87
2017-08-27T06:11:49.956Z,23.17
2017-08-27T06:14:16.847Z,25.40
2017-08-27T06:16:44.511Z,24.13
2017-08-27T06:19:12.200Z,29.20
2017-08-27T06:21:39.081Z,29.57
2017-08-27T06:24:05.991Z,29.10
2017-08-27T06:26:32.937Z,31.57
2017-08-27T06:28:59.784Z,31.90
2017-08-27T06:31:26.730Z,33.70
2017-08-27T06:33:53.608Z,35.10
2017-08-27T06:36:20.530Z,35.80
2017-08-27T06:38:47.489Z,34.57
2017-08-27T06:41:14.440Z,30.37
2017-08-27T06:43:41.318Z,30.73
2017-08-27T06:46:08.261Z,31.93
2017-08-27T06:48:35.198Z,33.40
2017-08-27T06:51:02.109Z,31.67
2017-08-27T06:53:28.967Z,34.37
2017-08-27T06:55:55.825Z,37.00
2017-08-27T06:58:22.780Z,34.70
2017-08-27T07:00:49.633Z,36.40
2017-08-27T07:03:16.484Z,32.20
2017-08-27T07:05:43.406Z,33.10
2017-08-27T07:08:10.268Z,31.13
2017-08-27T07:10:37.268Z,30.37
2017-08-27T07:13:04.124Z,29.50
2017-08-27T07:15:31.080Z,28.97
2017-08-27T07:17:57.947Z,31.00
2017-08-27T07:20:24.809Z,31.60
2017-08-27T07:22:52.489Z,31.90
2017-08-27T07:25:19.340Z,31.50
2017-08-27T07:27:46.216Z,33.90
2017-08-27T07:30:13.220Z,33.70
2017-08-27T07:32:40.908Z,28.20
2017-08-27T07:35:07.864Z,26.83
2017-08-27T07:37:34.832Z,29.10
2017-08-27T07:40:01.710Z,28.83
2017-08-27T07:42:29.467Z,29.53
2017-08-27T07:44:56.352Z,28.97
2017-08-27T07:47:23.206Z,27.93
2017-08-27T07:49:50.140Z,29.50
2017-08-27T07:52:17.008Z,24.43
2017-08-27T07:54:43.939Z,26.87
2017-08-27T07:57:10.780Z,31.80
2017-08-27T07:59:37.738Z,31.00
2017-08-27T08:02:04.674Z,30.37
2017-08-27T08:04:31.574Z,31.00
2017-08-27T08:06:58.557Z,31.47
2017-08-27T08:09:25.491Z,30.60
2017-08-27T08:11:52.343Z,28.30
2017-08-27T08:14:19.280Z,29.30
2017-08-27T08:16:46.139Z,33.87
2017-08-27T08:19:13.006Z,26.77
2017-08-27T08:21:46.334Z,31.57
2017-08-27T08:24:14.604Z,33.83
2017-08-27T08:26:42.476Z,32.60
2017-08-27T08:29:10.301Z,35.00
2017-08-27T08:31:38.744Z,29.23
2017-08-27T08:34:16.315Z,33.30
2017-08-27T08:36:43.303Z,35.07
2017-08-27T08:39:10.272Z,30.10
2017-08-27T08:41:37.219Z,29.93
2017-08-27T08:44:04.111Z,30.90
2017-08-27T08:46:31.066Z,28.90
2017-08-27T08:49:00.666Z,30.50
2017-08-27T08:51:27.696Z,33.43
2017-08-27T08:53:54.632Z,27.80
2017-08-27T08:56:21.556Z,34.00
2017-08-27T08:58:48.420Z,28.30
2017-08-27T09:01:15.291Z,29.43
2017-08-27T09:03:42.247Z,28.97
2017-08-27T09:06:09.840Z,30.97
2017-08-27T09:08:36.714Z,29.03
2017-08-27T09:11:03.631Z,28.40
2017-08-27T09:13:30.576Z,25.23
2017-08-27T09:15:57.427Z,27.07
2017-08-27T09:18:24.377Z,28.90
2017-08-27T09:20:51.267Z,28.77
2017-08-27T09:23:18.152Z,32.20
2017-08-27T09:25:45.167Z,29.87
2017-08-27T09:28:12.804Z,31.00
2017-08-27T09:30:39.672Z,31.00
2017-08-27T09:33:06.649Z,30.73
2017-08-27T09:35:33.563Z,28.30
2017-08-27T09:38:00.456Z,27.47
2017-08-27T09:40:27.428Z,28.67
2017-08-27T09:42:54.431Z,29.73
2017-08-27T09:45:21.310Z,27.13
2017-08-27T09:47:48.164Z,26.70
2017-08-27T09:50:15.111Z,31.40
2017-08-27T09:52:41.987Z,27.83
2017-08-27T09:55:08.927Z,25.47
2017-08-27T09:57:35.784Z,28.30
2017-08-27T10:00:03.459Z,28.10
2017-08-27T10:02:31.132Z,25.20
2017-08-27T10:04:58.051Z,27.57
2017-08-27T10:07:25.008Z,28.30
2017-08-27T10:09:52.661Z,28.90
2017-08-27T10:12:19.581Z,26.90
2017-08-27T10:14:46.434Z,28.20
2017-08-27T10:17:13.359Z,28.63
2017-08-27T10:19:40.229Z,24.20
2017-08-27T10:22:07.162Z,24.80
2017-08-27T10:24:34.089Z,25.47
2017-08-27T10:27:01.038Z,24.27
2017-08-27T10:29:27.970Z,27.03
2017-08-27T10:31:54.840Z,26.27
2017-08-27T10:34:21.820Z,24.97
2017-08-27T10:36:48.694Z,23.67
2017-08-27T10:39:15.629Z,23.00
2017-08-27T10:41:42.506Z,27.00
2017-08-27T10:44:09.381Z,27.90
2017-08-27T10:46:36.392Z,26.90
2017-08-27T10:49:03.261Z,25.73
2017-08-27T10:51:30.205Z,24.87
2017-08-27T10:53:57.087Z,23.97
2017-08-27T10:56:24.693Z,23.03
2017-08-27T10:58:51.659Z,22.43
2017-08-27T11:01:18.537Z,23.17
2017-08-27T11:03:46.182Z,23.53
2017-08-27T11:06:13.126Z,27.30
2017-08-27T11:08:39.981Z,22.07
2017-08-27T11:11:06.928Z,24.37
2017-08-27T11:13:33.831Z,23.13
2017-08-27T11:16:00.844Z,24.47
2017-08-27T11:18:27.820Z,24.20
2017-08-27T11:20:54.687Z,22.43
2017-08-27T11:23:21.540Z,21.77
2017-08-27T11:25:48.484Z,22.53
2017-08-27T11:28:15.520Z,22.13
2017-08-27T11:30:42.395Z,24.73
2017-08-27T11:33:09.304Z,25.77
2017-08-27T11:35:36.264Z,25.00
2017-08-27T11:38:03.129Z,24.90
2017-08-27T11:40:30.069Z,24.20
2017-08-27T11:43:04.083Z,29.80
2017-08-27T11:45:31.548Z,26.00
2017-08-27T11:47:58.478Z,24.27
2017-08-27T11:50:25.359Z,24.63
2017-08-27T11:52:52.944Z,25.40
2017-08-27T11:55:19.895Z,25.30
2017-08-27T11:57:46.769Z,25.47
2017-08-27T12:00:13.723Z,23.77
2017-08-27T12:02:40.589Z,23.53
2017-08-27T12:05:08.225Z,23.17
2017-08-27T12:07:35.196Z,24.27
2017-08-27T12:10:04.642Z,24.03
2017-08-27T12:12:31.732Z,25.83
2017-08-27T12:14:58.748Z,24.23
2017-08-27T12:17:25.618Z,24.20
2017-08-27T12:19:52.493Z,23.87
2017-08-27T12:22:19.437Z,23.60
2017-08-27T12:24:47.221Z,27.13
2017-08-27T12:27:14.104Z,23.43
2017-08-27T12:29:41.041Z,23.53
2017-08-27T12:32:08.075Z,20.50
2017-08-27T12:34:35.017Z,19.40
2017-08-27T12:37:01.942Z,24.17
2017-08-27T12:39:28.808Z,22.37
2017-08-27T12:41:55.896Z,21.50
2017-08-27T12:44:22.760Z,21.67
2017-08-27T12:46:49.719Z,20.00
2017-08-27T12:49:17.304Z,23.30
2017-08-27T12:51:44.182Z,22.27
2017-08-27T12:54:12.042Z,21.50
2017-08-27T12:56:38.944Z,17.63
2017-08-27T12:59:06.632Z,18.90
2017-08-27T13:01:33.592Z,20.93
2017-08-27T13:04:00.512Z,19.27
2017-08-27T13:06:27.468Z,23.80
2017-08-27T13:08:54.436Z,22.60
2017-08-27T13:11:21.461Z,23.00
2017-08-27T13:13:48.329Z,19.33
2017-08-27T13:16:15.315Z,22.67
2017-08-27T13:18:42.240Z,23.17
2017-08-27T13:21:09.197Z,22.10
2017-08-27T13:23:36.098Z,22.13
2017-08-27T13:26:02.980Z,20.03
2017-08-27T13:28:29.924Z,20.57
2017-08-27T13:30:56.846Z,20.80
2017-08-27T13:33:23.805Z,20.30
2017-08-27T13:35:50.841Z,19.43
2017-08-27T13:38:17.776Z,19.10
2017-08-27T13:40:44.754Z,17.77
2017-08-27T13:43:11.684Z,17.53
2017-08-27T13:45:38.571Z,18.10
2017-08-27T13:48:05.588Z,22.27
2017-08-27T13:50:32.565Z,16.43
2017-08-27T13:52:59.467Z,16.60
2017-08-27T13:55:26.484Z,17.40
2017-08-27T13:57:53.402Z,17.37
2017-08-27T14:00:20.288Z,16.87
2017-08-27T14:02:47.378Z,23.33
2017-08-27T14:05:14.319Z,17.80
2017-08-27T14:07:41.275Z,16.00
2017-08-27T14:10:08.284Z,18.20
2017-08-27T14:12:35.287Z,20.13
2017-08-27T14:15:02.175Z,17.63
2017-08-27T14:17:29.118Z,19.57
2017-08-27T14:19:56.021Z,21.43
2017-08-27T14:22:23.069Z,18.77
2017-08-27T14:24:50.840Z,18.17
2017-08-27T14:27:18.637Z,17.00
2017-08-27T14:29:45.616Z,19.67
2017-08-27T14:32:13.476Z,17.27
2017-08-27T14:34:40.426Z,16.50
2017-08-27T14:37:07.400Z,17.37
2017-08-27T14:39:34.305Z,18.90
2017-08-27T14:42:01.398Z,16.17
2017-08-27T14:44:28.556Z,17.20
2017-08-27T14:46:55.555Z,16.60
2017-08-27T14:49:22.537Z,16.87
2017-08-27T14:51:49.603Z,15.90
2017-08-27T14:54:16.665Z,17.77
2017-08-27T14:56:43.618Z,17.90
2017-08-27T14:59:10.577Z,15.90
2017-08-27T15:01:38.736Z,17.43
2017-08-27T15:04:05.760Z,16.43
2017-08-27T15:06:32.798Z,16.53
2017-08-27T15:08:59.805Z,15.70
2017-08-27T15:11:26.922Z,17.50
2017-08-27T15:13:55.086Z,16.97
2017-08-27T15:16:22.166Z,17.77
2017-08-27T15:18:49.924Z,16.20
2017-08-27T15:21:16.928Z,17.43
2017-08-27T15:23:43.954Z,24.70
2017-08-27T15:26:11.235Z,56.27
2017-08-27T15:28:38.184Z,63.43
2017-08-27T15:31:05.142Z,33.87
2017-08-27T15:33:32.222Z,24.67
2017-08-27T15:35:59.971Z,18.97
2017-08-27T15:38:26.859Z,18.50
2017-08-27T15:40:53.923Z,19.17
2017-08-27T15:43:20.892Z,19.73
2017-08-27T15:45:47.869Z,18.40
2017-08-27T15:48:14.814Z,21.10
2017-08-27T15:50:42.633Z,18.20
2017-08-27T15:53:09.671Z,18.40
2017-08-27T15:55:36.590Z,21.03
2017-08-27T15:58:03.549Z,20.00
2017-08-27T16:00:30.574Z,18.10
2017-08-27T16:02:58.263Z,17.70
2017-08-27T16:05:25.285Z,19.17
2017-08-27T16:07:53.008Z,17.40
2017-08-27T16:10:20.088Z,16.27
2017-08-27T16:12:47.041Z,19.57
2017-08-27T16:15:14.799Z,17.63
2017-08-27T16:17:41.787Z,19.63
2017-08-27T16:20:08.712Z,19.47
2017-08-27T16:22:36.409Z,20.33
2017-08-27T16:25:03.464Z,20.30
2017-08-27T16:27:30.480Z,23.40
2017-08-27T16:29:57.511Z,20.47
2017-08-27T16:32:28.138Z,19.17
2017-08-27T16:34:55.454Z,21.50
2017-08-27T16:37:25.365Z,20.90
2017-08-27T16:39:54.165Z,20.13
2017-08-27T16:42:21.143Z,22.57
2017-08-27T16:44:51.394Z,24.37
2017-08-27T16:47:30.400Z,24.70
2017-08-27T16:49:58.162Z,22.93
2017-08-27T16:52:26.640Z,25.60
2017-08-27T16:54:53.553Z,23.57
2017-08-27T16:57:21.408Z,22.43
2017-08-27T16:59:48.400Z,23.00
2017-08-27T17:02:15.273Z,24.00
2017-08-27T17:04:42.305Z,23.27
2017-08-27T17:07:09.976Z,25.63
2017-08-27T17:09:37.736Z,24.93
2017-08-27T17:12:05.488Z,25.87
2017-08-27T17:14:33.285Z,26.50
2017-08-27T17:17:00.303Z,24.13
2017-08-27T17:19:28.006Z,25.83
2017-08-27T17:21:55.081Z,26.03
2017-08-27T17:24:22.031Z,26.93
2017-08-27T17:26:48.972Z,23.80
2017-08-27T17:29:15.982Z,25.00
2017-08-27T17:31:42.954Z,26.77
2017-08-27T17:34:09.948Z,26.77
2017-08-27T17:36:37.711Z,24.07
2017-08-27T17:39:05.412Z,26.60
2017-08-27T17:41:32.396Z,25.90
2017-08-27T17:43:59.451Z,28.30
2017-08-27T17:46:26.393Z,26.50
2017-08-27T17:48:53.451Z,29.40
2017-08-27T17:51:20.498Z,28.97
2017-08-27T17:53:47.503Z,27.43
2017-08-27T17:56:14.535Z,28.80
2017-08-27T17:58:41.561Z,25.97
2017-08-27T18:01:09.310Z,25.20
2017-08-27T18:03:36.376Z,24.67
2017-08-27T18:06:04.189Z,25.43
2017-08-27T18:08:31.218Z,26.87
2017-08-27T18:10:58.268Z,26.27
2017-08-27T18:13:25.322Z,24.93
2017-08-27T18:15:52.292Z,25.70
2017-08-27T18:18:19.441Z,24.07
2017-08-27T18:20:46.333Z,23.73
2017-08-27T18:23:13.309Z,23.77
2017-08-27T18:25:40.191Z,25.87
2017-08-27T18:28:07.094Z,25.67
2017-08-27T18:30:34.144Z,25.67
2017-08-27T18:33:01.067Z,25.27
2017-08-27T18:35:29.405Z,23.30
2017-08-27T18:37:56.384Z,23.90
2017-08-27T18:40:23.274Z,27.17
2017-08-27T18:42:50.214Z,27.50
2017-08-27T18:45:17.164Z,28.87
2017-08-27T18:47:44.041Z,28.57
2017-08-27T18:50:10.997Z,26.77
2017-08-27T18:52:37.939Z,25.60
2017-08-27T18:55:04.897Z,29.57
2017-08-27T18:57:31.818Z,28.97
2017-08-27T18:59:58.837Z,31.60
2017-08-27T19:02:28.849Z,28.70
2017-08-27T19:04:55.878Z,31.80
2017-08-27T19:07:23.525Z,27.67
2017-08-27T19:09:50.541Z,28.90
2017-08-27T19:12:17.554Z,27.90
2017-08-27T19:14:45.933Z,31.63
2017-08-27T19:17:12.921Z,31.23
2017-08-27T19:19:39.979Z,30.40
2017-08-27T19:22:06.945Z,34.30
2017-08-27T19:24:33.852Z,33.07
2017-08-27T19:27:00.872Z,30.80
2017-08-27T19:29:27.812Z,29.63
2017-08-27T19:32:03.221Z,29.00
2017-08-27T19:34:32.250Z,29.33
2017-08-27T19:36:59.473Z,31.70
2017-08-27T19:39:26.476Z,28.70
2017-08-27T19:41:53.374Z,32.77
2017-08-27T19:44:20.369Z,29.47
2017-08-27T19:46:47.324Z,32.03
2017-08-27T19:49:14.214Z,30.20
2017-08-27T19:51:41.206Z,28.03
2017-08-27T19:54:08.123Z,33.67
2017-08-27T19:56:35.808Z,29.47
2017-08-27T19:59:04.258Z,29.17
2017-08-27T20:01:31.365Z,27.67
2017-08-27T20:03:58.281Z,28.10
2017-08-27T20:06:26.018Z,26.43
2017-08-27T20:08:53.046Z,28.37
2017-08-27T20:11:20.096Z,29.20
2017-08-27T20:13:47.344Z,28.97
2017-08-27T20:16:14.329Z,29.80
2017-08-27T20:18:41.315Z,29.47
2017-08-27T20:21:08.322Z,28.20
2017-08-27T20:23:36.072Z,30.07
2017-08-27T20:26:03.048Z,29.20
2017-08-27T20:28:29.928Z,30.40
2017-08-27T20:30:56.988Z,28.50
2017-08-27T20:33:24.846Z,31.60
2017-08-27T20:35:51.787Z,28.90
2017-08-27T20:38:18.737Z,28.00
2017-08-27T20:40:45.848Z,28.67
2017-08-27T20:43:13.485Z,27.57
2017-08-27T20:45:40.459Z,27.67
2017-08-27T20:48:07.528Z,26.03
2017-08-27T20:50:34.416Z,27.20
2017-08-27T20:53:01.320Z,27.77
2017-08-27T20:55:28.297Z,25.90
2017-08-27T20:57:55.172Z,24.30
2017-08-27T21:00:22.126Z,26.63
2017-08-27T21:02:49.737Z,24.70
2017-08-27T21:05:16.634Z,27.13
2017-08-27T21:07:44.379Z,24.70
2017-08-27T21:10:11.232Z,26.80
2017-08-27T21:12:38.205Z,25.80
2017-08-27T21:15:05.072Z,25.93
2017-08-27T21:17:31.975Z,25.80
2017-08-27T21:19:59.664Z,23.73
2017-08-27T21:22:26.584Z,22.20
2017-08-27T21:24:54.352Z,22.60
2017-08-27T21:27:21.987Z,24.87
2017-08-27T21:29:48.880Z,27.73
2017-08-27T21:32:15.828Z,27.07
2017-08-27T21:34:42.704Z,25.30
2017-08-27T21:37:09.682Z,28.87
2017-08-27T21:39:36.629Z,26.53
2017-08-27T21:42:03.548Z,24.87
2017-08-27T21:44:30.480Z,25.57
2017-08-27T21:46:57.360Z,25.00
2017-08-27T21:49:24.337Z,23.87
2017-08-27T21:51:51.968Z,22.93
2017-08-27T21:54:18.832Z,23.80
2017-08-27T21:56:46.513Z,25.47
2017-08-27T21:59:14.242Z,24.20
2017-08-27T22:01:41.173Z,24.67
2017-08-27T22:04:08.073Z,23.77
2017-08-27T22:06:35.115Z,25.53
2017-08-27T22:09:02.903Z,24.70
2017-08-27T22:11:29.861Z,25.63
2017-08-27T22:13:56.783Z,25.93
2017-08-27T22:16:23.744Z,27.23
2017-08-27T22:18:50.613Z,26.50
2017-08-27T22:21:17.497Z,25.53
2017-08-27T22:23:45.185Z,24.80
2017-08-27T22:26:12.061Z,26.00
2017-08-27T22:28:39.012Z,24.43
2017-08-27T22:31:05.887Z,28.20
2017-08-27T22:33:32.757Z,27.33
2017-08-27T22:35:59.694Z,26.43
2017-08-27T22:38:26.605Z,28.33
2017-08-27T22:40:53.589Z,28.90
2017-08-27T22:43:20.536Z,28.37
2017-08-27T22:45:48.179Z,28.00
2017-08-27T22:48:15.141Z,26.17
2017-08-27T22:50:42.848Z,26.00
2017-08-27T22:53:09.867Z,26.80
2017-08-27T22:55:36.796Z,27.73
2017-08-27T22:58:04.549Z,26.43
2017-08-27T23:00:32.287Z,25.20
2017-08-27T23:02:59.308Z,26.93
2017-08-27T23:05:26.189Z,26.23
2017-08-27T23:07:53.052Z,28.50
2017-08-27T23:10:20.729Z,28.90
2017-08-27T23:12:48.349Z,28.30
2017-08-27T23:15:15.309Z,29.10
2017-08-27T23:17:42.217Z,27.70
2017-08-27T23:20:21.473Z,29.63
2017-08-27T23:25:29.639Z,27.10
2017-08-27T23:27:57.362Z,24.87
2017-08-27T23:30:24.244Z,24.30
2017-08-27T23:32:51.927Z,23.83
2017-08-27T23:35:18.785Z,25.07
2017-08-27T23:37:45.643Z,22.83
2017-08-27T23:40:12.592Z,20.57
2017-08-27T23:42:39.479Z,22.40
2017-08-27T23:45:07.197Z,22.00
2017-08-27T23:47:34.131Z,21.43
2017-08-27T23:50:01.075Z,21.90
2017-08-27T23:52:27.935Z,22.77
2017-08-27T23:54:54.877Z,22.37
2017-08-27T23:57:21.802Z,21.60
2017-08-27T23:59:48.756Z,19.90
